Jepson Prairie Reserve, California Weather observations

Data are for 10 minute period ending at time listed.
 Day   Time   Solar   Ave.   Ave.  Ave.  Vector  Max.   Baro.   Total    
  of    of     Rad.   Air    Rel.  Wind   Wind   Wind  Press.  Precip.   
Year   Day            Temp.  Hum.  Speed  Dir.   Gust                    
2016   (PST)  Kw/m2    F      %     mph   deg.    mph    mb.     in.     
-------------------------------------------------------------------------
 241   10:10   0.75   72.6    48    9.1   237    13.2   1016.3    0.00 
 241   10:20   0.77   73.1    46    6.7   229    11.4   1016.3    0.00 
 241   10:30   0.78   74.6    45    7.8   239    12.5   1016.3    0.00 
 241   10:40   0.80   74.7    44    6.6   239    10.6   1016.3    0.00 
 241   10:50   0.81   75.3    43    6.9   221    11.9   1015.9    0.00 
 241   11:00   0.82   75.7    42    7.3   251    11.8   1015.9    0.00 
 241   11:10   0.83   77.5    40    6.3   257    10.3   1015.9    0.00 
 241   11:20   0.84   77.5    40    5.8   228     8.8   1015.9    0.00 
 241   11:30   0.85   78.4    39    6.0   210    10.7   1015.9    0.00 
 241   11:40   0.86   78.9    38    4.9   286    10.2   1015.9    0.00 
 241   11:50   0.86   79.4    38    6.9   235    12.5   1015.9    0.00 
 241   12:00   0.86   80.6    37    4.6   238    11.2   1015.6    0.00 
 241   12:10   0.86   80.9    36    6.3   264     9.9   1015.6    0.00 
 241   12:20   0.86   81.4    36    6.1   246    11.0   1015.2    0.00 
 241   12:30   0.86   82.1    35    5.9   226    11.6   1015.2    0.00 
 241   12:40   0.86   83.3    34    5.2   228     9.8   1015.2    0.00 
 241   12:50   0.86   83.0    34    7.0   231    16.2   1015.2    0.00 
 241   13:00   0.85   83.6    33    7.1   245    11.4   1014.9    0.00 
 241   13:10   0.84   83.7    33    8.3   225    13.3   1014.9    0.00 
 241   13:20   0.83   84.8    32    7.0   223    14.5   1014.9    0.00 
 241   13:30   0.82   86.3    33    7.9   233    14.5   1014.6    0.00 
 241   13:40   0.81   85.7    32    6.5   240    12.2   1014.6    0.00 
 241   13:50   0.79   85.8    30    7.1   240    11.9   1014.2    0.00 
 241   14:00   0.77   85.9    30    7.6   229    11.8   1014.2    0.00 
 241   14:10   0.76   86.1    30    8.8   248    14.0   1013.9    0.00 
 241   14:20   0.74   86.2    29    8.7   218    13.4   1013.9    0.00 
 241   14:30   0.72   86.9    28    8.5   227    12.9   1013.5    0.00 
 241   14:40   0.69   87.2    28    9.7   227    13.3   1013.5    0.00 
 241   14:50   0.67   87.3    28    9.7   227    14.7   1013.2    0.00 
 241   15:00   0.65   87.2    28   10.9   230    16.9   1013.2    0.00 
 241   15:10   0.62   87.2    28   11.7   221    16.1   1013.2    0.00 
 241   15:20   0.59   86.9    28   11.4   221    16.6   1013.2    0.00 
 241   15:30   0.56   87.2    26   11.1   216    15.4   1012.9    0.00 
 241   15:40   0.54   87.2    27   11.4   226    16.1   1012.9    0.00 
 241   15:50   0.50   86.6    28   11.9   232    17.0   1012.9    0.00 
 241   16:00   0.47   85.8    30   13.4   232    18.0   1012.9    0.00 
 241   16:10   0.44   85.3    31   13.8   235    18.4   1012.9    0.00 
 241   16:20   0.41   84.9    31   13.0   223    18.2   1012.9    0.00 
 241   16:30   0.38   84.3    30   14.6   215    19.1   1012.9    0.00 
 241   16:40   0.35   83.5    31   14.0   221    17.8   1012.9    0.00 
 241   16:50   0.31   82.6    34   15.3   216    18.9   1012.9    0.00 
 241   17:00   0.28   81.5    36   17.0   220    20.2   1012.9    0.00 
 241   17:10   0.25   80.1    39   17.0   216    20.8   1012.9    0.00 
 241   17:20   0.22   79.1    41   17.1   215    21.4   1013.2    0.00 
 241   17:30   0.18   77.7    44   18.6   217    23.2   1013.2    0.00 
 241   17:40   0.15   76.4    45   20.0   222    24.1   1013.2    0.00 
 241   17:50   0.12   75.2    47   18.8   218    26.5   1013.2    0.00 
 241   18:00   0.10   73.9    49   20.6   216    25.1   1013.2    0.00 
 241   18:10   0.07   73.0    51   18.7   214    24.2   1013.2    0.00 
 241   18:20   0.05   71.9    53   17.7   213    23.0   1013.2    0.00 
 241   18:30   0.02   71.0    54   17.8   210    22.4   1013.2    0.00 
 241   18:40   0.01   69.8    56   17.9   209    22.9   1013.2    0.00 
 241   18:50   0.00   68.8    58   17.7   214    21.4   1013.5    0.00 
 241   19:00   0.00   68.0    60   18.3   215    24.2   1013.2    0.00 
 241   19:10   0.00   67.4    61   19.2   216    24.2   1013.2    0.00 
 241   19:20   0.00   67.2    61   17.8   213    23.2   1013.5    0.00 
 241   19:30   0.00   66.6    62   15.0   209    20.5   1013.5    0.00 
 241   19:40   0.00   65.8    64   13.6   209    19.4   1013.9    0.00 
 241   19:50   0.00   65.7    64   15.9   210    20.0   1013.9    0.00 
 241   20:00   0.00   65.3    64   16.5   207    22.1   1013.5    0.00 
 241   20:10   0.00   64.8    65   15.8   205    21.5   1013.5    0.00 
 241   20:20   0.00   64.2    67   16.2   202    21.2   1013.5    0.00 
 241   20:30   0.00   63.8    67   17.1   208    20.3   1013.5    0.00 
 241   20:40   0.00   63.5    67   18.1   207    21.9   1013.5    0.00 
 241   20:50   0.00   63.0    68   15.4   205    19.6   1013.9    0.00 
 241   21:00   0.00   62.5    70   14.0   207    19.0   1013.9    0.00 
 241   21:10   0.00   61.8    71   15.8   212    22.3   1014.2    0.00 
 241   21:20   0.00   61.8    72   17.6   209    21.5   1014.2    0.00 
 241   21:30   0.00   61.3    72   19.4   211    24.0   1014.2    0.00 
 241   21:40   0.00   60.9    72   21.3   211    27.3   1013.9    0.00 
 241   21:50   0.00   60.3    72   23.2   209    28.8   1013.9    0.00 
 241   22:00   0.00   60.0    73   25.2   206    31.5   1013.9    0.00 
 241   22:10   0.00   59.6    74   26.4   205    30.2   1013.9    0.00 
 241   22:20   0.00   59.5    74   25.0   206    29.5   1013.9    0.00 
 241   22:30   0.00   59.3    75   21.5   204    26.2   1013.9    0.00 
 241   22:40   0.00   58.9    76   19.0   201    23.7   1014.2    0.00 
 241   22:50   0.00   58.8    77   18.5   204    22.8   1013.9    0.00 
 241   23:00   0.00   59.2    77   20.2   202    24.6   1013.9    0.00 
 241   23:10   100.00  99999.0   99999  99999.0   99999   99999.0   99999.0   99999.00 
 241   23:20   100.00  99999.0   99999  99999.0   99999   99999.0   99999.0   99999.00 
 241   23:30   100.00  99999.0   99999  99999.0   99999   99999.0   99999.0   99999.00 
 241   23:40   100.00  99999.0   99999  99999.0   99999   99999.0   99999.0   99999.00 
 241   23:50   100.00  99999.0   99999  99999.0   99999   99999.0   99999.0   99999.00 
 242    0:00   0.00   58.2    80   20.1   212    25.7   1013.9    0.00 
 242    0:10   0.00   57.9    80   19.2   212    26.5   1014.2    0.00 
 242    0:20   0.00   57.7    81   21.9   210    26.6   1013.9    0.00 
 242    0:30   0.00   57.3    82   21.4   213    25.4   1013.9    0.00 
 242    0:40   0.00   57.2    82   20.5   213    25.7   1013.9    0.00 
 242    0:50   0.00   57.1    82   21.7   214    27.2   1013.9    0.00 
 242    1:00   0.00   57.0    82   21.2   216    27.5   1013.9    0.00 
 242    1:10   0.00   56.8    83   22.2   218    26.9   1013.5    0.00 
 242    1:20   0.00   56.6    84   22.8   219    27.8   1013.5    0.00 
 242    1:30   0.00   56.5    84   21.3   216    27.0   1013.5    0.00 
 242    1:40   0.00   56.4    84   20.9   217    26.5   1013.5    0.00 
 242    1:50   0.00   56.2    84   22.4   219    28.6   1013.9    0.00 
 242    2:00   0.00   56.3    84   20.3   214    26.4   1013.9    0.00 
 242    2:10   0.00   56.0    84   19.7   207    26.2   1013.9    0.00 
 242    2:20   0.00   55.9    85   18.5   203    26.5   1014.2    0.00 
 242    2:30   0.00   55.9    85   16.5   200    21.0   1014.2    0.00 
 242    2:40   0.00   55.8    85   17.0   201    20.6   1014.2    0.00 
 242    2:50   0.00   55.7    85   18.9   203    25.5   1014.2    0.00 
 242    3:00   0.00   55.6    85   18.5   206    23.2   1014.2    0.00 
 242    3:10   0.00   55.3    86   18.6   208    22.6   1014.2    0.00 
 242    3:20   0.00   55.0    86   18.1   212    23.1   1014.2    0.00 
 242    3:30   0.00   54.8    88   17.7   216    23.4   1014.2    0.00 
 242    3:40   0.00   54.5    88   16.2   218    20.5   1014.2    0.00 
 242    3:50   0.00   54.4    89   17.3   217    21.3   1014.2    0.00 
 242    4:00   0.00   54.5    89   19.1   215    24.5   1014.2    0.00 
 242    4:10   0.00   54.4    89   17.9   216    22.9   1014.2    0.00 
 242    4:20   0.00   54.4    90   19.6   217    24.3   1013.9    0.00 
 242    4:30   0.00   54.6    90   21.1   213    26.1   1013.9    0.00 
 242    4:40   0.00   54.5    89   21.5   214    27.2   1013.9    0.00 
 242    4:50   0.00   54.4    89   20.0   217    24.5   1013.9    0.00 
 242    5:00   0.00   54.4    89   19.9   216    25.6   1013.9    0.00 
 242    5:10   0.00   54.5    89   21.3   217    26.7   1013.9    0.00 
 242    5:20   0.00   54.4    89   21.3   217    27.0   1014.2    0.00 
 242    5:30   0.00   54.4    89   21.2   217    27.5   1014.2    0.00 
 242    5:40   0.00   54.6    90   21.6   218    26.1   1014.2    0.00 
 242    5:50   0.01   54.7    90   22.1   215    26.2   1014.6    0.00 
 242    6:00   0.03   54.8    90   21.1   214    26.5   1014.6    0.00 
 242    6:10   0.06   55.1    90   20.1   212    25.0   1014.6    0.00 
 242    6:20   0.09   55.3    89   20.0   212    25.4   1014.9    0.00 
 242    6:30   0.12   55.8    88   20.3   212    28.5   1014.9    0.00 
 242    6:40   0.15   56.2    87   21.6   214    27.5   1014.9    0.00 
 242    6:50   0.18   56.6    86   22.3   215    26.9   1014.9    0.00 
 242    7:00   0.19   57.1    85   21.6   216    25.9   1015.2    0.00 
 242    7:10   0.24   57.6    84   20.1   216    26.7   1015.2    0.00 
 242    7:20   0.28   58.4    82   21.4   219    25.9   1015.6    0.00 
 242    7:30   0.31   58.7    80   21.5   219    26.0   1015.6    0.00 
 242    7:40   0.35   59.6    77   20.2   219    25.0   1015.6    0.00 
 242    7:50   0.40   60.8    74   19.9   215    26.5   1015.6    0.00 
 242    8:00   0.42   61.2    72   21.5   217    26.2   1015.6    0.00 
 242    8:10   0.44   61.6    71   20.7   220    26.1   1015.9    0.00 
 242    8:20   0.46   62.0    70   20.2   216    24.3   1015.6    0.00 
 242    8:30   0.50   62.7    68   21.3   218    26.8   1015.9    0.00 
 242    8:40   0.52   63.4    68   20.4   222    25.9   1015.9    0.00 
 242    8:50   0.51   63.8    66   22.4   221    28.1   1015.9    0.00 
 242    9:00   0.56   63.5    67   23.0   226    28.1   1015.9    0.00 
 242    9:10   0.60   64.0    66   23.0   228    28.9   1015.9    0.00 
 242    9:20   0.63   64.7    64   22.4   226    27.0   1015.9    0.00 
 242    9:30   0.65   65.1    64   21.5   223    25.8   1015.9    0.00 
 242    9:40   0.68   66.2    62   20.4   220    25.3   1015.9    0.00 
 242    9:50   0.70   67.7    59   19.1   218    24.6   1015.9    0.00 
 242   10:00   0.72   68.6    58   19.1   212    22.9   1016.3    0.00 

Return to Jepson Prairie Reserve graphs page.


Western Regional Climate Center,wrcc@dri.edu